createdAt,value
2022-08-17T00:04:20.026Z,74.32
2022-08-17T00:09:23.121Z,74.38
2022-08-17T00:14:26.234Z,74.54
2022-08-17T00:19:29.554Z,74.44
2022-08-17T00:24:32.577Z,74.08
2022-08-17T00:29:35.621Z,74.11
2022-08-17T00:34:39.340Z,74.24
2022-08-17T00:39:42.424Z,74.24
2022-08-17T00:44:46.131Z,74.09
2022-08-17T00:49:49.164Z,74.04
2022-08-17T00:54:55.269Z,74.52
2022-08-17T01:00:32.978Z,74.81
2022-08-17T01:05:42.297Z,74.96
2022-08-17T01:10:59.176Z,75.04
2022-08-17T01:16:16.164Z,75.04
2022-08-17T01:21:44.243Z,75.04
2022-08-17T01:26:47.906Z,75.20
2022-08-17T01:31:58.748Z,74.81
2022-08-17T01:37:01.907Z,74.59
2022-08-17T01:42:31.075Z,74.19
2022-08-17T01:47:36.049Z,74.40
2022-08-17T01:52:40.445Z,74.44
2022-08-17T01:57:45.803Z,74.40
2022-08-17T02:02:48.948Z,74.88
2022-08-17T02:08:00.476Z,75.33
2022-08-17T02:13:04.755Z,75.68
2022-08-17T02:18:10.489Z,75.72
2022-08-17T02:23:14.665Z,75.82
2022-08-17T02:28:18.994Z,75.80
2022-08-17T02:33:22.781Z,75.46
2022-08-17T02:38:26.171Z,75.55
2022-08-17T02:43:29.577Z,75.79
2022-08-17T02:48:32.655Z,76.02
2022-08-17T02:53:36.239Z,75.89
2022-08-17T02:58:39.432Z,75.88
2022-08-17T03:03:42.534Z,75.77
2022-08-17T03:08:45.541Z,75.80
2022-08-17T03:13:48.555Z,76.09
2022-08-17T03:18:51.364Z,75.78
2022-08-17T03:23:54.779Z,75.87
2022-08-17T03:28:58.096Z,76.00
2022-08-17T03:34:01.291Z,76.16
2022-08-17T03:39:05.153Z,76.61
2022-08-17T03:44:08.167Z,76.79
2022-08-17T03:49:30.168Z,76.61
2022-08-17T03:54:51.984Z,76.79
2022-08-17T03:59:56.115Z,77.35
2022-08-17T04:04:59.949Z,76.96
2022-08-17T04:10:02.969Z,76.71
2022-08-17T04:15:06.914Z,76.70
2022-08-17T04:20:13.122Z,76.67
2022-08-17T04:25:18.635Z,76.77
2022-08-17T04:30:22.786Z,77.14
2022-08-17T04:35:31.930Z,77.25
2022-08-17T04:41:24.928Z,77.36
2022-08-17T04:46:36.184Z,77.41
2022-08-17T04:51:54.725Z,77.62
2022-08-17T04:56:59.959Z,77.92
2022-08-17T05:02:02.997Z,77.73
2022-08-17T05:07:06.032Z,77.92
2022-08-17T05:12:09.112Z,77.85
2022-08-17T05:17:12.130Z,77.62
2022-08-17T05:22:15.179Z,77.77
2022-08-17T05:27:19.045Z,77.22
2022-08-17T05:32:39.626Z,76.84
2022-08-17T05:37:43.278Z,76.58
2022-08-17T05:42:46.848Z,75.50
2022-08-17T05:47:49.956Z,74.59
2022-08-17T05:53:35.768Z,74.30
2022-08-17T05:59:02.167Z,73.50
2022-08-17T06:04:37.485Z,72.99
2022-08-17T06:09:49.769Z,72.53
2022-08-17T06:15:17.070Z,72.58
2022-08-17T06:20:20.160Z,71.85
2022-08-17T06:25:49.282Z,71.44
2022-08-17T06:31:01.585Z,71.38
2022-08-17T06:36:38.125Z,70.21
2022-08-17T06:42:07.003Z,69.89
2022-08-17T06:47:30.999Z,69.23
2022-08-17T06:52:54.170Z,69.81
2022-08-17T06:58:05.277Z,69.59
2022-08-17T07:03:38.018Z,70.15
2022-08-17T07:08:56.015Z,70.84
2022-08-17T07:14:40.141Z,70.63
2022-08-17T07:19:47.438Z,70.57
2022-08-17T07:25:00.729Z,70.39
2022-08-17T07:30:25.681Z,69.76
2022-08-17T07:35:37.651Z,69.76
2022-08-17T07:40:58.154Z,69.85
2022-08-17T07:46:41.068Z,69.20
2022-08-17T07:51:44.031Z,68.95
2022-08-17T07:56:57.799Z,69.37
2022-08-17T08:02:03.970Z,69.87
2022-08-17T08:07:26.649Z,69.73
2022-08-17T08:12:53.673Z,68.86
2022-08-17T08:18:03.017Z,68.85
2022-08-17T08:23:21.102Z,68.46
2022-08-17T08:28:34.633Z,68.13
2022-08-17T08:33:56.388Z,68.04
2022-08-17T08:39:22.312Z,67.11
2022-08-17T08:44:59.769Z,66.65
2022-08-17T08:50:37.087Z,66.27
2022-08-17T08:56:09.438Z,66.18
2022-08-17T09:02:09.257Z,66.31
2022-08-17T09:07:47.535Z,66.67
2022-08-17T09:13:10.166Z,65.86
2022-08-17T09:18:59.868Z,65.76
2022-08-17T09:24:33.587Z,65.78
2022-08-17T09:29:44.797Z,65.46
2022-08-17T09:35:00.183Z,65.19
2022-08-17T09:40:13.474Z,63.44
2022-08-17T09:46:09.568Z,63.09
2022-08-17T09:51:43.931Z,64.06
2022-08-17T09:57:30.516Z,63.91
2022-08-17T10:03:09.955Z,63.34
2022-08-17T10:08:47.110Z,63.05
2022-08-17T10:14:36.333Z,62.60
2022-08-17T10:20:01.721Z,60.84
2022-08-17T10:25:33.440Z,61.39
2022-08-17T10:31:16.744Z,61.50
2022-08-17T10:36:38.076Z,62.35
2022-08-17T10:41:50.922Z,61.42
2022-08-17T10:47:09.035Z,61.40
2022-08-17T10:52:20.927Z,61.33
2022-08-17T10:57:29.707Z,61.29
2022-08-17T11:02:54.364Z,61.12
2022-08-17T11:08:05.441Z,61.09
2022-08-17T11:13:46.561Z,61.15
2022-08-17T11:19:16.850Z,61.28
2022-08-17T11:24:36.149Z,60.12
2022-08-17T11:29:59.459Z,59.65
2022-08-17T11:35:22.857Z,58.71
2022-08-17T11:40:28.422Z,58.21
2022-08-17T11:45:37.518Z,58.41
2022-08-17T11:51:27.515Z,59.07
2022-08-17T11:56:46.148Z,58.34
2022-08-17T12:01:56.818Z,58.25
2022-08-17T12:07:23.339Z,58.24
2022-08-17T12:12:36.116Z,57.69
2022-08-17T12:17:42.617Z,58.74
2022-08-17T12:23:01.285Z,57.98
2022-08-17T12:28:19.998Z,58.07
2022-08-17T12:33:28.147Z,57.63
2022-08-17T12:38:36.269Z,58.34
2022-08-17T12:43:39.250Z,58.97
2022-08-17T12:48:59.139Z,58.64
2022-08-17T12:54:03.247Z,58.29
2022-08-17T12:59:07.265Z,57.83
2022-08-17T13:04:15.900Z,57.47
2022-08-17T13:09:35.680Z,57.69
2022-08-17T13:14:46.742Z,57.71
2022-08-17T13:19:51.085Z,56.45
2022-08-17T13:25:05.730Z,55.16
2022-08-17T13:30:12.547Z,54.71
2022-08-17T13:35:50.080Z,54.16
2022-08-17T13:40:53.605Z,53.61
2022-08-17T13:46:09.000Z,53.81
2022-08-17T13:51:28.354Z,54.17
2022-08-17T13:56:46.803Z,53.32
2022-08-17T14:01:53.767Z,54.37
2022-08-17T14:07:08.948Z,54.02
2022-08-17T14:12:16.563Z,54.15
2022-08-17T14:17:19.553Z,54.01
2022-08-17T14:22:36.050Z,54.98
2022-08-17T14:27:53.268Z,54.62
2022-08-17T14:32:58.228Z,54.60
2022-08-17T14:38:04.435Z,54.79
2022-08-17T14:43:07.392Z,54.57
2022-08-17T14:48:11.088Z,55.07
2022-08-17T14:53:16.480Z,54.66
2022-08-17T14:58:19.975Z,53.79
2022-08-17T15:03:23.573Z,54.72
2022-08-17T15:08:26.494Z,55.45
2022-08-17T15:13:29.696Z,55.61
2022-08-17T15:18:33.107Z,55.47
2022-08-17T15:23:37.607Z,55.86
2022-08-17T15:28:40.623Z,55.65
2022-08-17T15:33:43.927Z,57.04
2022-08-17T15:38:47.306Z,57.82
2022-08-17T15:43:50.403Z,58.19
2022-08-17T15:48:59.041Z,58.27
2022-08-17T15:54:22.295Z,58.41
2022-08-17T15:59:27.229Z,59.08
2022-08-17T16:04:31.878Z,58.88
2022-08-17T16:09:35.051Z,59.31
2022-08-17T16:14:38.071Z,59.31
2022-08-17T16:19:41.625Z,59.70
2022-08-17T16:24:56.773Z,59.57
2022-08-17T16:30:01.300Z,59.46
2022-08-17T16:35:09.647Z,59.56
2022-08-17T16:40:14.753Z,59.49
2022-08-17T16:45:36.853Z,59.92
2022-08-17T16:50:39.930Z,60.20
2022-08-17T16:55:44.378Z,60.59
2022-08-17T17:00:48.941Z,61.06
2022-08-17T17:06:22.749Z,61.41
2022-08-17T17:11:45.947Z,61.53
2022-08-17T17:17:02.678Z,61.55
2022-08-17T17:22:31.571Z,61.85
2022-08-17T17:28:07.922Z,61.94
2022-08-17T17:33:18.498Z,62.13
2022-08-17T17:38:49.788Z,62.55
2022-08-17T17:44:02.930Z,63.22
2022-08-17T17:49:06.621Z,63.38
2022-08-17T17:54:36.226Z,63.91
2022-08-17T18:00:04.972Z,64.05
2022-08-17T18:05:24.104Z,64.14
2022-08-17T18:10:44.969Z,64.12
2022-08-17T18:15:54.433Z,64.71
2022-08-17T18:21:07.230Z,65.23
2022-08-17T18:26:10.130Z,65.64
2022-08-17T18:31:19.951Z,66.03
2022-08-17T18:36:30.355Z,66.13
2022-08-17T18:41:41.401Z,66.26
2022-08-17T18:46:44.621Z,66.52
2022-08-17T18:51:47.746Z,66.76
2022-08-17T18:57:02.145Z,67.28
2022-08-17T19:02:20.673Z,67.61
2022-08-17T19:07:45.862Z,67.80
2022-08-17T19:13:24.446Z,68.08
2022-08-17T19:18:36.985Z,68.06
2022-08-17T19:24:19.609Z,68.02
2022-08-17T19:29:56.140Z,68.48
2022-08-17T19:35:01.187Z,68.50
2022-08-17T19:40:35.189Z,68.76
2022-08-17T19:45:56.161Z,68.71
2022-08-17T19:51:11.678Z,69.12
2022-08-17T19:56:55.643Z,69.30
2022-08-17T20:02:09.168Z,69.49
2022-08-17T20:07:41.805Z,69.49
2022-08-17T20:12:49.810Z,69.45
2022-08-17T20:17:53.920Z,69.30
2022-08-17T20:23:22.559Z,69.64
2022-08-17T20:28:32.168Z,69.62
2022-08-17T20:33:38.277Z,70.07
2022-08-17T20:38:58.172Z,70.16
2022-08-17T20:44:06.321Z,70.21
2022-08-17T20:49:09.226Z,70.16
2022-08-17T20:54:18.115Z,70.01
2022-08-17T20:59:21.040Z,70.12
2022-08-17T21:05:25.360Z,70.20
2022-08-17T21:10:35.858Z,70.78
2022-08-17T21:16:28.283Z,70.52
2022-08-17T21:22:05.054Z,70.51
2022-08-17T21:27:58.921Z,70.64
2022-08-17T21:33:20.292Z,70.98
2022-08-17T21:38:34.299Z,70.88
2022-08-17T21:43:46.494Z,71.00
2022-08-17T21:48:54.312Z,70.99
2022-08-17T21:54:12.011Z,70.77
2022-08-17T21:59:39.511Z,70.67
2022-08-17T22:04:43.686Z,70.63
2022-08-17T22:09:50.185Z,70.68
2022-08-17T22:14:56.295Z,70.77
2022-08-17T22:20:08.098Z,70.79
2022-08-17T22:25:21.780Z,71.07
2022-08-17T22:30:33.839Z,71.09
2022-08-17T22:35:42.811Z,71.19
2022-08-17T22:40:51.275Z,71.33
2022-08-17T22:45:59.627Z,71.36
2022-08-17T22:51:30.308Z,71.54
2022-08-17T22:56:51.993Z,71.41
2022-08-17T23:02:12.062Z,71.51
2022-08-17T23:07:17.520Z,71.37
2022-08-17T23:12:26.757Z,71.37
2022-08-17T23:17:37.462Z,71.63
2022-08-17T23:22:51.855Z,71.34
2022-08-17T23:27:58.613Z,71.31
2022-08-17T23:33:06.617Z,71.27
2022-08-17T23:38:11.906Z,71.37
2022-08-17T23:43:23.938Z,71.49
2022-08-17T23:48:38.743Z,71.60
2022-08-17T23:53:50.158Z,71.64
2022-08-17T23:58:55.737Z,71.93
